createdAt,value
2023-05-07T00:00:48.901Z,102525.66
2023-05-07T00:02:50.847Z,102530.25
2023-05-07T00:04:52.706Z,102531.09
2023-05-07T00:06:54.327Z,102526.53
2023-05-07T00:08:57.584Z,102529.41
2023-05-07T00:10:59.516Z,102532.97
2023-05-07T00:13:01.106Z,102527.53
2023-05-07T00:15:03.595Z,102523.81
2023-05-07T00:17:06.832Z,102530.09
2023-05-07T00:19:08.653Z,102522.97
2023-05-07T00:21:10.193Z,102522.09
2023-05-07T00:23:11.826Z,102529.25
2023-05-07T00:25:13.681Z,102524.81
2023-05-07T00:27:15.603Z,102528.38
2023-05-07T00:29:18.724Z,102526.53
2023-05-07T00:31:20.629Z,102522.78
2023-05-07T00:33:23.712Z,102522.63
2023-05-07T00:35:26.042Z,102526.22
2023-05-07T00:37:27.920Z,102516.19
2023-05-07T00:39:29.552Z,102524.34
2023-05-07T00:41:31.388Z,102521.63
2023-05-07T00:43:33.043Z,102521.63
2023-05-07T00:45:35.160Z,102521.78
2023-05-07T00:47:38.323Z,102521.78
2023-05-07T00:49:43.891Z,102525.34
2023-05-07T00:51:46.418Z,102524.50
2023-05-07T00:53:48.669Z,102526.22
2023-05-07T00:55:50.457Z,102528.06
2023-05-07T00:57:53.141Z,102527.22
2023-05-07T00:59:54.809Z,102527.22
2023-05-07T01:01:56.684Z,102524.50
2023-05-07T01:03:58.586Z,102520.06
2023-05-07T01:06:03.737Z,102513.81
2023-05-07T01:08:05.878Z,102514.63
2023-05-07T01:10:09.351Z,102519.38
2023-05-07T01:12:11.892Z,102515.81
2023-05-07T01:14:13.662Z,102529.56
2023-05-07T01:16:15.279Z,102526.16
2023-05-07T01:18:17.598Z,102523.56
2023-05-07T01:20:19.887Z,102531.91
2023-05-07T01:22:31.099Z,102536.47
2023-05-07T01:24:33.360Z,102532.22
2023-05-07T01:26:35.263Z,102534.09
2023-05-07T01:28:37.933Z,102537.81
2023-05-07T01:30:50.642Z,102543.22
2023-05-07T01:32:57.799Z,102530.81
2023-05-07T01:35:01.350Z,102539.13
2023-05-07T01:37:03.867Z,102533.88
2023-05-07T01:39:07.854Z,102539.31
2023-05-07T01:41:09.626Z,102535.72
2023-05-07T01:43:12.030Z,102536.72
2023-05-07T01:45:13.874Z,102537.59
2023-05-07T01:47:16.460Z,102534.88
2023-05-07T01:49:18.406Z,102540.31
2023-05-07T01:51:20.712Z,102542.16
2023-05-07T01:53:22.220Z,102538.59
2023-05-07T01:55:25.316Z,102536.06
2023-05-07T01:57:26.961Z,102532.47
2023-05-07T01:59:28.582Z,102533.47
2023-05-07T02:01:30.524Z,102533.63
2023-05-07T02:03:32.449Z,102541.78
2023-05-07T02:05:34.380Z,102532.09
2023-05-07T02:07:36.203Z,102543.09
2023-05-07T02:09:38.143Z,102542.25
2023-05-07T02:11:41.101Z,102541.41
2023-05-07T02:13:42.911Z,102537.84
2023-05-07T02:15:44.891Z,102541.56
2023-05-07T02:18:03.977Z,102549.69
2023-05-07T02:20:07.330Z,102549.16
2023-05-07T02:22:10.980Z,102552.06
2023-05-07T02:24:13.964Z,102549.47
2023-05-07T02:26:15.899Z,102542.50
2023-05-07T02:28:18.889Z,102544.38
2023-05-07T02:30:20.641Z,102546.38
2023-05-07T02:32:22.285Z,102547.41
2023-05-07T02:34:24.109Z,102545.81
2023-05-07T02:36:25.888Z,102547.53
2023-05-07T02:38:27.743Z,102549.41
2023-05-07T02:40:29.229Z,102543.09
2023-05-07T02:42:30.997Z,102541.44
2023-05-07T02:44:34.488Z,102552.28
2023-05-07T02:46:36.303Z,102537.13
2023-05-07T02:48:37.985Z,102542.56
2023-05-07T02:50:39.545Z,102539.00
2023-05-07T02:52:41.170Z,102542.75
2023-05-07T02:54:42.748Z,102540.03
2023-05-07T02:56:44.667Z,102545.59
2023-05-07T02:58:46.533Z,102536.59
2023-05-07T03:00:49.666Z,102542.19
2023-05-07T03:02:51.705Z,102548.63
2023-05-07T03:04:53.325Z,102548.94
2023-05-07T03:06:55.332Z,102548.09
2023-05-07T03:08:56.944Z,102550.09
2023-05-07T03:10:59.080Z,102544.84
2023-05-07T03:13:00.715Z,102549.53
2023-05-07T03:15:02.668Z,102550.72
2023-05-07T03:17:05.600Z,102547.16
2023-05-07T03:19:07.511Z,102543.75
2023-05-07T03:21:09.437Z,102543.03
2023-05-07T03:23:11.571Z,102549.50
2023-05-07T03:25:13.385Z,102543.34
2023-05-07T03:27:15.265Z,102542.66
2023-05-07T03:29:16.809Z,102543.66
2023-05-07T03:31:19.461Z,102548.22
2023-05-07T03:33:22.532Z,102541.09
2023-05-07T03:35:24.470Z,102544.81
2023-05-07T03:37:27.190Z,102540.41
2023-05-07T03:39:29.485Z,102541.41
2023-05-07T03:41:33.675Z,102546.28
2023-05-07T03:43:35.312Z,102552.56
2023-05-07T03:45:38.459Z,102551.84
2023-05-07T03:47:40.482Z,102543.88
2023-05-07T03:49:46.122Z,102551.16
2023-05-07T03:51:47.763Z,102550.47
2023-05-07T03:53:49.641Z,102556.03
2023-05-07T03:55:51.314Z,102555.34
2023-05-07T03:57:53.603Z,102559.91
2023-05-07T03:59:55.463Z,102569.06
2023-05-07T04:01:59.170Z,102566.47
2023-05-07T04:04:01.125Z,102562.09
2023-05-07T04:06:04.207Z,102564.94
2023-05-07T04:08:05.779Z,102559.66
2023-05-07T04:10:08.065Z,102565.06
2023-05-07T04:12:09.878Z,102564.06
2023-05-07T04:14:12.651Z,102573.22
2023-05-07T04:16:14.572Z,102565.06
2023-05-07T04:18:16.316Z,102566.97
2023-05-07T04:20:18.669Z,102572.38
2023-05-07T04:22:22.920Z,102582.06
2023-05-07T04:24:24.542Z,102579.34
2023-05-07T04:26:26.094Z,102590.91
2023-05-07T04:28:27.621Z,102587.19
2023-05-07T04:30:30.082Z,102590.75
2023-05-07T04:32:31.957Z,102589.59
2023-05-07T04:34:33.738Z,102585.88
2023-05-07T04:36:35.396Z,102592.00
2023-05-07T04:38:38.408Z,102595.44
2023-05-07T04:40:40.100Z,102606.97
2023-05-07T04:42:41.689Z,102609.41
2023-05-07T04:44:43.736Z,102610.09
2023-05-07T04:46:47.724Z,102598.94
2023-05-07T04:48:49.374Z,102611.19
2023-05-07T04:50:51.498Z,102613.47
2023-05-07T04:52:53.153Z,102611.13
2023-05-07T04:54:56.090Z,102607.97
2023-05-07T04:56:57.724Z,102616.50
2023-05-07T04:58:59.476Z,102614.34
2023-05-07T05:01:01.696Z,102613.88
2023-05-07T05:03:03.721Z,102624.13
2023-05-07T05:05:06.649Z,102627.25
2023-05-07T05:07:08.485Z,102623.03
2023-05-07T05:09:11.619Z,102618.84
2023-05-07T05:11:14.739Z,102620.94
2023-05-07T05:13:16.595Z,102622.34
2023-05-07T05:15:18.700Z,102630.91
2023-05-07T05:17:20.350Z,102621.38
2023-05-07T05:19:22.032Z,102630.78
2023-05-07T05:21:23.667Z,102627.63
2023-05-07T05:23:25.932Z,102638.03
2023-05-07T05:25:27.776Z,102635.84
2023-05-07T05:27:31.170Z,102631.78
2023-05-07T05:29:33.057Z,102634.03
2023-05-07T05:31:34.793Z,102636.41
2023-05-07T05:33:36.398Z,102628.50
2023-05-07T05:35:38.842Z,102623.59
2023-05-07T05:37:40.349Z,102625.81
2023-05-07T05:39:41.919Z,102627.94
2023-05-07T05:41:43.834Z,102617.56
2023-05-07T05:43:46.892Z,102617.94
2023-05-07T05:45:48.548Z,102627.91
2023-05-07T05:47:50.139Z,102618.94
2023-05-07T05:49:52.014Z,102624.44
2023-05-07T05:51:53.832Z,102623.63
2023-05-07T05:53:55.703Z,102628.91
2023-05-07T05:55:58.003Z,102636.44
2023-05-07T05:57:59.766Z,102636.31
2023-05-07T06:00:03.221Z,102632.78
2023-05-07T06:02:04.827Z,102636.22
2023-05-07T06:04:06.677Z,102634.38
2023-05-07T06:06:08.251Z,102631.50
2023-05-07T06:08:10.291Z,102627.09
2023-05-07T06:10:11.960Z,102631.38
2023-05-07T06:12:13.805Z,102631.22
2023-05-07T06:14:15.351Z,102623.91
2023-05-07T06:16:18.560Z,102631.59
2023-05-07T06:18:20.147Z,102631.25
2023-05-07T06:20:21.737Z,102634.53
2023-05-07T06:22:23.529Z,102637.56
2023-05-07T06:24:25.590Z,102627.34
2023-05-07T06:26:28.907Z,102630.56
2023-05-07T06:28:30.632Z,102631.03
2023-05-07T06:30:32.415Z,102632.38
2023-05-07T06:32:35.912Z,102636.25
2023-05-07T06:34:38.248Z,102628.56
2023-05-07T06:36:39.799Z,102632.44
2023-05-07T06:38:41.389Z,102641.06
2023-05-07T06:40:43.425Z,102642.38
2023-05-07T06:42:45.366Z,102642.84
2023-05-07T06:44:47.048Z,102644.50
2023-05-07T06:46:48.969Z,102650.63
2023-05-07T06:48:53.048Z,102645.75
2023-05-07T06:50:54.796Z,102643.63
2023-05-07T06:52:56.367Z,102647.00
2023-05-07T06:54:57.967Z,102642.13
2023-05-07T06:56:59.727Z,102641.69
2023-05-07T06:59:01.781Z,102647.75
2023-05-07T07:01:03.651Z,102643.91
2023-05-07T07:03:05.822Z,102642.63
2023-05-07T07:05:10.189Z,102652.25
2023-05-07T07:07:11.827Z,102647.19
2023-05-07T07:09:13.976Z,102643.16
2023-05-07T07:11:16.596Z,102654.69
2023-05-07T07:13:18.476Z,102651.66
2023-05-07T07:15:21.053Z,102660.25
2023-05-07T07:17:24.640Z,102654.28
2023-05-07T07:19:27.424Z,102658.25
2023-05-07T07:21:30.681Z,102660.09
2023-05-07T07:23:32.697Z,102656.00
2023-05-07T07:25:34.681Z,102654.47
2023-05-07T07:27:37.700Z,102648.69
2023-05-07T07:29:39.616Z,102655.75
2023-05-07T07:31:41.294Z,102652.69
2023-05-07T07:33:43.329Z,102645.19
2023-05-07T07:35:45.166Z,102657.72
2023-05-07T07:37:48.378Z,102652.06
2023-05-07T07:39:49.989Z,102643.25
2023-05-07T07:41:51.793Z,102642.47
2023-05-07T07:43:53.649Z,102646.13
2023-05-07T07:45:55.238Z,102640.50
2023-05-07T07:47:56.800Z,102640.31
2023-05-07T07:49:58.735Z,102634.91
2023-05-07T07:52:00.355Z,102631.97
2023-05-07T07:54:04.034Z,102642.81
2023-05-07T07:56:06.209Z,102645.41
2023-05-07T07:58:08.370Z,102644.88
2023-05-07T08:00:11.741Z,102639.84
2023-05-07T08:02:13.773Z,102646.66
2023-05-07T08:04:15.445Z,102646.06
2023-05-07T08:06:17.343Z,102648.22
2023-05-07T08:08:18.980Z,102649.53
2023-05-07T08:10:23.092Z,102659.94
2023-05-07T08:12:25.142Z,102652.78
2023-05-07T08:14:28.843Z,102660.00
2023-05-07T08:16:31.099Z,102656.63
2023-05-07T08:18:33.215Z,102654.75
2023-05-07T08:20:35.139Z,102653.72
2023-05-07T08:22:36.853Z,102661.78
2023-05-07T08:24:38.668Z,102660.53
2023-05-07T08:26:41.964Z,102657.34
2023-05-07T08:28:43.589Z,102656.09
2023-05-07T08:30:45.584Z,102650.13
2023-05-07T08:32:47.662Z,102657.56
2023-05-07T08:34:49.529Z,102655.00
2023-05-07T08:36:51.453Z,102650.56
2023-05-07T08:38:54.111Z,102654.56
2023-05-07T08:40:55.722Z,102654.13
2023-05-07T08:42:59.857Z,102651.16
2023-05-07T08:45:03.403Z,102648.16
2023-05-07T08:47:08.373Z,102641.56
2023-05-07T08:49:10.436Z,102642.13
2023-05-07T08:51:13.727Z,102638.53
2023-05-07T08:53:18.012Z,102638.28
2023-05-07T08:55:19.953Z,102641.00
2023-05-07T08:57:21.924Z,102644.75
2023-05-07T08:59:25.324Z,102645.34
2023-05-07T09:01:27.374Z,102642.16
2023-05-07T09:03:29.014Z,102639.09
2023-05-07T09:05:30.668Z,102634.78
2023-05-07T09:07:32.497Z,102641.72
2023-05-07T09:09:34.702Z,102644.22
2023-05-07T09:11:36.762Z,102645.00
2023-05-07T09:13:38.842Z,102649.81
2023-05-07T09:15:42.286Z,102645.69
2023-05-07T09:17:44.383Z,102644.56
2023-05-07T09:19:46.647Z,102647.28
2023-05-07T09:21:48.734Z,102648.72
2023-05-07T09:23:55.045Z,102649.75
2023-05-07T09:26:01.494Z,102660.38
2023-05-07T09:28:04.515Z,102641.41
2023-05-07T09:30:07.488Z,102650.72
2023-05-07T09:32:10.559Z,102639.19
2023-05-07T09:34:12.264Z,102651.25
2023-05-07T09:36:14.247Z,102646.50
2023-05-07T09:38:19.673Z,102647.28
2023-05-07T09:40:22.118Z,102642.50
2023-05-07T09:42:26.848Z,102646.28
2023-05-07T09:44:28.534Z,102642.22
2023-05-07T09:46:32.355Z,102637.06
2023-05-07T09:48:40.001Z,102640.22
2023-05-07T09:50:52.737Z,102640.97
2023-05-07T09:52:55.244Z,102635.34
2023-05-07T09:54:59.596Z,102636.34
2023-05-07T09:57:03.315Z,102638.22
2023-05-07T09:59:07.938Z,102637.50
2023-05-07T10:01:13.727Z,102645.34
2023-05-07T10:03:15.598Z,102634.44
2023-05-07T10:05:19.391Z,102629.63
2023-05-07T10:07:21.919Z,102633.16
2023-05-07T10:09:24.203Z,102641.97
2023-05-07T10:11:25.923Z,102636.09
2023-05-07T10:13:28.489Z,102642.00
2023-05-07T10:15:30.659Z,102640.44
2023-05-07T10:17:33.265Z,102645.97
2023-05-07T10:19:36.840Z,102645.75
2023-05-07T10:21:44.869Z,102644.22
2023-05-07T10:23:50.054Z,102645.16
2023-05-07T10:25:53.750Z,102652.28
2023-05-07T10:28:07.464Z,102646.69
2023-05-07T10:30:23.739Z,102650.22
2023-05-07T10:32:38.243Z,102646.97
2023-05-07T10:34:45.814Z,102635.88
2023-05-07T10:36:49.492Z,102649.38
2023-05-07T10:38:51.370Z,102637.91
2023-05-07T10:40:53.663Z,102647.25
2023-05-07T10:42:56.984Z,102648.13
2023-05-07T10:44:58.942Z,102646.59
2023-05-07T10:47:07.832Z,102634.78
2023-05-07T10:49:12.720Z,102638.75
2023-05-07T10:51:22.079Z,102643.94
2023-05-07T10:53:26.308Z,102635.28
2023-05-07T10:55:28.141Z,102633.84
2023-05-07T10:57:36.315Z,102631.03
2023-05-07T10:59:38.030Z,102638.78
2023-05-07T11:01:54.225Z,102634.06
2023-05-07T11:04:15.334Z,102631.53
2023-05-07T11:06:17.998Z,102628.13
2023-05-07T11:08:19.548Z,102633.47
2023-05-07T11:10:22.954Z,102618.00
2023-05-07T11:12:56.990Z,102634.03
2023-05-07T11:14:58.892Z,102634.72
2023-05-07T11:17:03.547Z,102626.50
2023-05-07T11:19:05.716Z,102627.94
2023-05-07T11:21:07.303Z,102627.22
2023-05-07T11:23:08.873Z,102625.41
2023-05-07T11:25:11.016Z,102619.94
2023-05-07T11:27:14.717Z,102626.44
2023-05-07T11:29:22.150Z,102626.28
2023-05-07T11:31:26.637Z,102627.22
2023-05-07T11:33:28.627Z,102629.16
2023-05-07T11:35:30.741Z,102620.72
2023-05-07T11:37:32.692Z,102624.59
2023-05-07T11:39:35.372Z,102619.88
2023-05-07T11:41:38.053Z,102620.38
2023-05-07T11:43:55.678Z,102628.22
2023-05-07T11:46:07.173Z,102619.66
2023-05-07T11:48:09.279Z,102622.16
2023-05-07T11:50:11.648Z,102617.22
2023-05-07T11:52:14.228Z,102628.31
2023-05-07T11:54:18.638Z,102630.34
2023-05-07T11:56:21.392Z,102630.09
2023-05-07T11:58:24.956Z,102631.28
2023-05-07T12:00:28.057Z,102627.81
2023-05-07T12:02:30.035Z,102620.03
2023-05-07T12:04:31.865Z,102627.03
2023-05-07T12:06:38.215Z,102632.19
2023-05-07T12:08:41.815Z,102622.88
2023-05-07T12:10:44.098Z,102624.63
2023-05-07T12:12:47.488Z,102627.75
2023-05-07T12:14:49.212Z,102635.25
2023-05-07T12:16:53.057Z,102626.91
2023-05-07T12:18:55.112Z,102629.34
2023-05-07T12:20:57.300Z,102627.06
2023-05-07T12:22:59.305Z,102624.81
2023-05-07T12:25:01.099Z,102628.44
2023-05-07T12:27:03.249Z,102630.94
2023-05-07T12:29:05.297Z,102634.56
2023-05-07T12:31:09.439Z,102634.31
2023-05-07T12:33:15.698Z,102634.66
2023-05-07T12:35:17.834Z,102636.69
2023-05-07T12:37:24.953Z,102634.00
2023-05-07T12:39:26.533Z,102633.47
2023-05-07T12:41:28.104Z,102635.06
2023-05-07T12:43:30.703Z,102641.13
2023-05-07T12:45:32.485Z,102651.69
2023-05-07T12:47:34.595Z,102647.09
2023-05-07T12:49:37.935Z,102646.75
2023-05-07T12:51:39.691Z,102651.97
2023-05-07T12:53:42.212Z,102650.56
2023-05-07T12:55:45.772Z,102649.72
2023-05-07T12:57:50.390Z,102649.72
2023-05-07T12:59:52.184Z,102646.94
2023-05-07T13:01:54.516Z,102645.56
2023-05-07T13:03:56.307Z,102645.34
2023-05-07T13:06:01.116Z,102647.88
2023-05-07T13:08:02.979Z,102651.75
2023-05-07T13:10:05.265Z,102653.44
2023-05-07T13:12:07.421Z,102642.31
2023-05-07T13:14:09.045Z,102646.75
2023-05-07T13:16:12.507Z,102641.97
2023-05-07T13:18:14.517Z,102639.69
2023-05-07T13:20:16.452Z,102642.63
2023-05-07T13:22:19.446Z,102636.84
2023-05-07T13:24:21.012Z,102638.94
2023-05-07T13:26:26.646Z,102642.22
2023-05-07T13:28:28.788Z,102641.59
2023-05-07T13:30:30.319Z,102636.78
2023-05-07T13:32:32.063Z,102643.34
2023-05-07T13:34:33.954Z,102633.22
2023-05-07T13:36:35.503Z,102637.09
2023-05-07T13:38:38.505Z,102634.53
2023-05-07T13:40:40.109Z,102638.66
2023-05-07T13:42:41.954Z,102635.31
2023-05-07T13:44:43.512Z,102637.75
2023-05-07T13:46:45.084Z,102637.38
2023-05-07T13:48:46.673Z,102639.31
2023-05-07T13:50:48.465Z,102640.91
2023-05-07T13:52:50.262Z,102645.59
2023-05-07T13:54:53.373Z,102646.94
2023-05-07T13:56:55.010Z,102646.94
2023-05-07T13:59:00.475Z,102639.69
2023-05-07T14:01:02.431Z,102645.75
2023-05-07T14:03:05.965Z,102639.47
2023-05-07T14:05:08.197Z,102641.06
2023-05-07T14:07:09.722Z,102638.78
2023-05-07T14:09:11.349Z,102630.34
2023-05-07T14:11:14.344Z,102641.91
2023-05-07T14:13:16.117Z,102637.06
2023-05-07T14:15:17.850Z,102630.94
2023-05-07T14:17:19.941Z,102640.06
2023-05-07T14:19:21.954Z,102642.03
2023-05-07T14:21:23.809Z,102633.69
2023-05-07T14:23:25.934Z,102639.34
2023-05-07T14:25:29.364Z,102632.00
2023-05-07T14:27:32.446Z,102645.88
2023-05-07T14:29:34.401Z,102647.94
2023-05-07T14:31:36.104Z,102649.13
2023-05-07T14:33:39.131Z,102649.50
2023-05-07T14:35:42.185Z,102655.75
2023-05-07T14:37:43.981Z,102659.47
2023-05-07T14:39:49.908Z,102659.97
2023-05-07T14:41:52.194Z,102662.59
2023-05-07T14:43:55.179Z,102654.59
2023-05-07T14:45:56.999Z,102655.81
2023-05-07T14:47:58.641Z,102657.81
2023-05-07T14:50:00.249Z,102666.22
2023-05-07T14:52:01.984Z,102661.66
2023-05-07T14:54:04.148Z,102668.72
2023-05-07T14:56:06.308Z,102657.38
2023-05-07T14:58:08.292Z,102671.28
2023-05-07T15:00:12.540Z,102666.72
2023-05-07T15:02:14.502Z,102667.19
2023-05-07T15:04:16.624Z,102673.66
2023-05-07T15:06:18.474Z,102672.66
2023-05-07T15:08:20.209Z,102665.03
2023-05-07T15:10:21.970Z,102664.50
2023-05-07T15:12:24.047Z,102672.41
2023-05-07T15:14:25.778Z,102665.66
2023-05-07T15:16:29.273Z,102671.88
2023-05-07T15:18:31.104Z,102667.41
2023-05-07T15:20:32.845Z,102660.72
2023-05-07T15:22:35.202Z,102668.25
2023-05-07T15:24:36.911Z,102662.81
2023-05-07T15:26:38.475Z,102663.28
2023-05-07T15:28:41.408Z,102662.88
2023-05-07T15:30:43.291Z,102663.94
2023-05-07T15:32:47.058Z,102666.94
2023-05-07T15:34:48.751Z,102668.72
2023-05-07T15:36:50.499Z,102661.31
2023-05-07T15:38:52.118Z,102674.59
2023-05-07T15:40:54.026Z,102675.72
2023-05-07T15:42:57.324Z,102667.50
2023-05-07T15:44:59.284Z,102667.34
2023-05-07T15:47:01.213Z,102668.63
2023-05-07T15:49:04.564Z,102676.06
2023-05-07T15:51:06.258Z,102672.91
2023-05-07T15:53:08.592Z,102681.66
2023-05-07T15:55:10.720Z,102683.81
2023-05-07T15:57:12.645Z,102681.94
2023-05-07T15:59:14.304Z,102681.78
2023-05-07T16:01:16.123Z,102677.56
2023-05-07T16:03:20.270Z,102674.88
2023-05-07T16:05:23.690Z,102676.84
2023-05-07T16:07:25.302Z,102673.47
2023-05-07T16:09:29.100Z,102679.06
2023-05-07T16:11:30.924Z,102676.34
2023-05-07T16:13:32.507Z,102676.94
2023-05-07T16:15:34.115Z,102666.97
2023-05-07T16:17:35.772Z,102680.16
2023-05-07T16:19:37.451Z,102677.59
2023-05-07T16:21:40.649Z,102664.69
2023-05-07T16:23:42.548Z,102668.75
2023-05-07T16:25:44.650Z,102670.47
2023-05-07T16:27:47.231Z,102667.94
2023-05-07T16:29:49.041Z,102671.59
2023-05-07T16:31:50.876Z,102675.44
2023-05-07T16:33:52.799Z,102677.59
2023-05-07T16:35:55.284Z,102682.53
2023-05-07T16:38:01.192Z,102671.06
2023-05-07T16:40:02.982Z,102662.81
2023-05-07T16:42:04.943Z,102675.56
2023-05-07T16:44:06.454Z,102663.47
2023-05-07T16:46:08.034Z,102673.22
2023-05-07T16:48:09.763Z,102663.66
2023-05-07T16:50:13.724Z,102673.22
2023-05-07T16:52:15.364Z,102677.69
2023-05-07T16:54:18.304Z,102677.47
2023-05-07T16:56:19.915Z,102671.34
2023-05-07T16:58:21.727Z,102671.34
2023-05-07T17:00:23.473Z,102669.22
2023-05-07T17:02:25.122Z,102681.91
2023-05-07T17:04:26.791Z,102678.75
2023-05-07T17:06:28.335Z,102674.28
2023-05-07T17:08:29.985Z,102678.75
2023-05-07T17:10:33.991Z,102678.31
2023-05-07T17:12:39.194Z,102680.56
2023-05-07T17:14:40.921Z,102682.88
2023-05-07T17:16:43.670Z,102680.13
2023-05-07T17:18:45.530Z,102686.66
2023-05-07T17:20:47.228Z,102689.38
2023-05-07T17:22:49.039Z,102684.50
2023-05-07T17:24:50.689Z,102684.28
2023-05-07T17:26:53.606Z,102691.28
2023-05-07T17:28:55.236Z,102686.03
2023-05-07T17:30:57.130Z,102686.91
2023-05-07T17:33:09.364Z,102695.16
2023-05-07T17:35:15.557Z,102693.94
2023-05-07T17:37:17.230Z,102684.59
2023-05-07T17:39:19.194Z,102690.69
2023-05-07T17:41:20.788Z,102685.97
2023-05-07T17:43:26.553Z,102694.00
2023-05-07T17:45:28.428Z,102695.84
2023-05-07T17:47:30.110Z,102694.09
2023-05-07T17:49:31.695Z,102693.63
2023-05-07T17:51:42.476Z,102697.81
2023-05-07T17:53:54.919Z,102696.03
2023-05-07T17:55:56.802Z,102690.41
2023-05-07T17:57:58.454Z,102701.94
2023-05-07T18:00:02.057Z,102697.00
2023-05-07T18:02:03.702Z,102700.97
2023-05-07T18:04:05.433Z,102703.84
2023-05-07T18:06:09.463Z,102704.19
2023-05-07T18:08:11.844Z,102698.84
2023-05-07T18:10:13.591Z,102696.63
2023-05-07T18:12:15.458Z,102703.66
2023-05-07T18:14:17.215Z,102704.16
2023-05-07T18:16:20.432Z,102700.00
2023-05-07T18:18:22.076Z,102701.75
2023-05-07T18:20:23.778Z,102709.44
2023-05-07T18:22:25.660Z,102707.84
2023-05-07T18:24:27.294Z,102716.00
2023-05-07T18:26:29.105Z,102716.09
2023-05-07T18:28:30.733Z,102712.59
2023-05-07T18:30:32.561Z,102721.28
2023-05-07T18:32:35.599Z,102717.13
2023-05-07T18:34:37.222Z,102725.25
2023-05-07T18:36:38.931Z,102734.59
2023-05-07T18:38:40.590Z,102736.38
2023-05-07T18:40:42.205Z,102738.53
2023-05-07T18:42:43.721Z,102741.31
2023-05-07T18:44:46.887Z,102739.50
2023-05-07T18:46:48.761Z,102745.88
2023-05-07T18:48:51.869Z,102747.50
2023-05-07T18:50:53.532Z,102742.25
2023-05-07T18:52:55.152Z,102752.41
2023-05-07T18:54:56.981Z,102756.22
2023-05-07T18:57:00.052Z,102757.31
2023-05-07T18:59:01.772Z,102763.50
2023-05-07T19:01:05.046Z,102760.81
2023-05-07T19:03:06.904Z,102758.81
2023-05-07T19:05:10.304Z,102764.16
2023-05-07T19:07:12.004Z,102764.84
2023-05-07T19:09:13.622Z,102763.69
2023-05-07T19:11:15.175Z,102768.84
2023-05-07T19:13:17.435Z,102775.69
2023-05-07T19:15:19.482Z,102773.66
2023-05-07T19:17:21.343Z,102768.91
2023-05-07T19:19:23.499Z,102770.44
2023-05-07T19:21:26.444Z,102774.72
2023-05-07T19:23:30.209Z,102770.81
2023-05-07T19:25:32.036Z,102766.72
2023-05-07T19:27:33.571Z,102770.81
2023-05-07T19:29:35.342Z,102769.47
2023-05-07T19:31:37.532Z,102766.44
2023-05-07T19:33:39.213Z,102769.84
2023-05-07T19:35:41.053Z,102766.94
2023-05-07T19:37:44.038Z,102771.91
2023-05-07T19:39:46.438Z,102774.13
2023-05-07T19:41:48.302Z,102774.66
2023-05-07T19:43:50.621Z,102784.41
2023-05-07T19:45:53.020Z,102775.69
2023-05-07T19:47:54.617Z,102782.53
2023-05-07T19:49:56.408Z,102771.09
2023-05-07T19:51:57.960Z,102776.19
2023-05-07T19:54:01.988Z,102776.56
2023-05-07T19:56:05.036Z,102775.38
2023-05-07T19:58:06.951Z,102779.47
2023-05-07T20:00:09.805Z,102779.97
2023-05-07T20:02:11.434Z,102781.31
2023-05-07T20:04:13.088Z,102779.94
2023-05-07T20:06:15.248Z,102779.44
2023-05-07T20:08:16.913Z,102779.09
2023-05-07T20:10:20.287Z,102783.16
2023-05-07T20:12:22.065Z,102795.28
2023-05-07T20:14:23.698Z,102792.19
2023-05-07T20:16:25.376Z,102786.22
2023-05-07T20:18:28.684Z,102788.44
2023-05-07T20:20:30.471Z,102782.47
2023-05-07T20:22:32.468Z,102785.53
2023-05-07T20:24:37.194Z,102792.28
2023-05-07T20:26:43.024Z,102795.53
2023-05-07T20:28:45.134Z,102796.72
2023-05-07T20:30:46.746Z,102795.34
2023-05-07T20:32:48.599Z,102800.25
2023-05-07T20:34:50.751Z,102796.16
2023-05-07T20:36:52.623Z,102801.09
2023-05-07T20:38:54.900Z,102801.41
2023-05-07T20:40:56.947Z,102803.78
2023-05-07T20:42:59.993Z,102814.16
2023-05-07T20:45:03.575Z,102806.50
2023-05-07T20:47:05.766Z,102815.16
2023-05-07T20:49:07.710Z,102809.31
2023-05-07T20:51:09.315Z,102821.41
2023-05-07T20:53:11.094Z,102818.16
2023-05-07T20:55:12.741Z,102825.97
2023-05-07T20:57:14.337Z,102828.16
2023-05-07T20:59:17.376Z,102826.75
2023-05-07T21:01:19.143Z,102833.41
2023-05-07T21:03:21.972Z,102837.31
2023-05-07T21:05:23.570Z,102838.63
2023-05-07T21:07:25.361Z,102837.06
2023-05-07T21:09:29.037Z,102837.41
2023-05-07T21:11:30.751Z,102845.91
2023-05-07T21:13:32.509Z,102847.94
2023-05-07T21:15:35.931Z,102847.06
2023-05-07T21:17:38.126Z,102847.41
2023-05-07T21:19:39.944Z,102852.13
2023-05-07T21:21:42.103Z,102847.00
2023-05-07T21:23:43.996Z,102849.88
2023-05-07T21:25:45.686Z,102849.88
2023-05-07T21:27:47.614Z,102850.91
2023-05-07T21:29:49.232Z,102847.34
2023-05-07T21:31:52.502Z,102855.50
2023-05-07T21:33:54.089Z,102856.38
2023-05-07T21:35:55.711Z,102861.94
2023-05-07T21:37:57.253Z,102861.94
2023-05-07T21:39:59.373Z,102859.22
2023-05-07T21:42:00.901Z,102870.13
2023-05-07T21:44:02.584Z,102874.88
2023-05-07T21:46:06.603Z,102870.59
2023-05-07T21:48:13.962Z,102874.34
2023-05-07T21:50:16.258Z,102877.53
2023-05-07T21:52:18.797Z,102871.56
2023-05-07T21:54:20.680Z,102873.56
2023-05-07T21:56:22.309Z,102869.16
2023-05-07T21:58:24.177Z,102874.75
2023-05-07T22:00:26.016Z,102882.22
2023-05-07T22:02:27.671Z,102878.78
2023-05-07T22:04:30.937Z,102881.66
2023-05-07T22:06:32.549Z,102880.28
2023-05-07T22:08:34.154Z,102881.28
2023-05-07T22:10:36.067Z,102887.03
2023-05-07T22:12:38.650Z,102884.47
2023-05-07T22:14:40.221Z,102885.63
2023-05-07T22:16:42.143Z,102880.50
2023-05-07T22:18:43.744Z,102884.38
2023-05-07T22:20:46.917Z,102878.38
2023-05-07T22:22:51.213Z,102881.44
2023-05-07T22:24:54.032Z,102879.88
2023-05-07T22:26:55.968Z,102886.31
2023-05-07T22:28:57.525Z,102885.63
2023-05-07T22:30:59.365Z,102885.78
2023-05-07T22:33:01.311Z,102884.19
2023-05-07T22:35:03.134Z,102879.03
2023-05-07T22:37:06.372Z,102872.22
2023-05-07T22:39:07.920Z,102876.94
2023-05-07T22:41:09.602Z,102875.72
2023-05-07T22:43:11.261Z,102879.25
2023-05-07T22:45:12.913Z,102883.16
2023-05-07T22:47:14.718Z,102887.72
2023-05-07T22:49:16.362Z,102882.47
2023-05-07T22:51:18.052Z,102880.88
2023-05-07T22:53:21.461Z,102892.78
2023-05-07T22:55:23.204Z,102885.63
2023-05-07T22:57:24.964Z,102888.34
2023-05-07T22:59:26.595Z,102884.91
2023-05-07T23:01:28.273Z,102886.81
2023-05-07T23:03:30.215Z,102886.94
2023-05-07T23:05:31.932Z,102882.50
2023-05-07T23:07:33.709Z,102893.56
2023-05-07T23:09:36.779Z,102882.25
2023-05-07T23:11:38.581Z,102886.69
2023-05-07T23:13:40.214Z,102891.41
2023-05-07T23:15:42.888Z,102897.03
2023-05-07T23:17:45.903Z,102900.19
2023-05-07T23:19:48.012Z,102894.06